sensor_id;sensor_type;location;lat;lon;timestamp;temperature;humidity
4840;DHT22;2434;48.486;7.964;2022-12-07T00:01:28;5.80;81.30
4840;DHT22;2434;48.486;7.964;2022-12-07T00:03:59;5.80;81.30
4840;DHT22;2434;48.486;7.964;2022-12-07T00:06:32;5.80;81.30
4840;DHT22;2434;48.486;7.964;2022-12-07T00:09:00;5.80;81.40
4840;DHT22;2434;48.486;7.964;2022-12-07T00:11:29;5.80;81.40
4840;DHT22;2434;48.486;7.964;2022-12-07T00:13:59;5.80;81.40
4840;DHT22;2434;48.486;7.964;2022-12-07T00:16:29;5.80;81.20
4840;DHT22;2434;48.486;7.964;2022-12-07T00:18:59;5.80;81.20
4840;DHT22;2434;48.486;7.964;2022-12-07T00:21:29;5.80;81.80
4840;DHT22;2434;48.486;7.964;2022-12-07T00:23:58;5.80;81.40
4840;DHT22;2434;48.486;7.964;2022-12-07T00:26:27;5.80;81.60
4840;DHT22;2434;48.486;7.964;2022-12-07T00:29:00;5.70;81.60
4840;DHT22;2434;48.486;7.964;2022-12-07T00:31:31;5.70;81.80
4840;DHT22;2434;48.486;7.964;2022-12-07T00:34:01;5.70;82.00
4840;DHT22;2434;48.486;7.964;2022-12-07T00:36:29;5.70;81.90
4840;DHT22;2434;48.486;7.964;2022-12-07T00:38:58;5.70;82.10
4840;DHT22;2434;48.486;7.964;2022-12-07T00:41:28;5.80;82.00
4840;DHT22;2434;48.486;7.964;2022-12-07T00:43:57;5.70;82.60
4840;DHT22;2434;48.486;7.964;2022-12-07T00:46:25;5.80;81.70
4840;DHT22;2434;48.486;7.964;2022-12-07T00:48:54;5.80;81.70
4840;DHT22;2434;48.486;7.964;2022-12-07T00:51:25;5.80;81.60
4840;DHT22;2434;48.486;7.964;2022-12-07T00:53:53;5.80;81.50
4840;DHT22;2434;48.486;7.964;2022-12-07T00:56:23;5.80;81.30
4840;DHT22;2434;48.486;7.964;2022-12-07T00:58:53;5.90;81.20
4840;DHT22;2434;48.486;7.964;2022-12-07T01:01:23;5.90;80.70
4840;DHT22;2434;48.486;7.964;2022-12-07T01:03:52;5.90;80.20
4840;DHT22;2434;48.486;7.964;2022-12-07T01:06:21;5.90;80.30
4840;DHT22;2434;48.486;7.964;2022-12-07T01:08:51;5.90;80.30
4840;DHT22;2434;48.486;7.964;2022-12-07T01:11:22;5.90;79.50
4840;DHT22;2434;48.486;7.964;2022-12-07T01:13:51;5.90;79.70
4840;DHT22;2434;48.486;7.964;2022-12-07T01:16:20;5.90;79.30
4840;DHT22;2434;48.486;7.964;2022-12-07T01:18:51;5.90;79.80
4840;DHT22;2434;48.486;7.964;2022-12-07T01:21:21;5.90;80.00
4840;DHT22;2434;48.486;7.964;2022-12-07T01:23:51;5.90;80.90
4840;DHT22;2434;48.486;7.964;2022-12-07T01:26:22;5.90;80.30
4840;DHT22;2434;48.486;7.964;2022-12-07T01:28:51;5.90;80.40
4840;DHT22;2434;48.486;7.964;2022-12-07T01:31:22;5.80;80.40
4840;DHT22;2434;48.486;7.964;2022-12-07T01:33:54;5.80;81.40
4840;DHT22;2434;48.486;7.964;2022-12-07T01:36:24;5.80;81.00
4840;DHT22;2434;48.486;7.964;2022-12-07T01:38:55;5.80;81.00
4840;DHT22;2434;48.486;7.964;2022-12-07T01:41:25;5.80;81.30
4840;DHT22;2434;48.486;7.964;2022-12-07T01:44:16;5.80;81.30
4840;DHT22;2434;48.486;7.964;2022-12-07T01:46:46;5.80;81.30
4840;DHT22;2434;48.486;7.964;2022-12-07T01:49:20;5.80;81.40
4840;DHT22;2434;48.486;7.964;2022-12-07T01:51:50;5.80;81.40
4840;DHT22;2434;48.486;7.964;2022-12-07T01:54:22;5.70;81.30
4840;DHT22;2434;48.486;7.964;2022-12-07T01:56:52;5.70;81.40
4840;DHT22;2434;48.486;7.964;2022-12-07T01:59:23;5.70;81.50
4840;DHT22;2434;48.486;7.964;2022-12-07T02:01:53;5.70;81.30
4840;DHT22;2434;48.486;7.964;2022-12-07T02:04:22;5.80;81.20
4840;DHT22;2434;48.486;7.964;2022-12-07T02:06:51;5.80;81.20
4840;DHT22;2434;48.486;7.964;2022-12-07T02:09:22;5.70;80.90
4840;DHT22;2434;48.486;7.964;2022-12-07T02:11:50;5.60;80.90
4840;DHT22;2434;48.486;7.964;2022-12-07T02:14:19;5.60;81.10
4840;DHT22;2434;48.486;7.964;2022-12-07T02:16:53;5.60;81.30
4840;DHT22;2434;48.486;7.964;2022-12-07T02:26:02;5.50;82.00
4840;DHT22;2434;48.486;7.964;2022-12-07T02:31:30;5.50;82.00
4840;DHT22;2434;48.486;7.964;2022-12-07T02:34:04;5.50;82.20
4840;DHT22;2434;48.486;7.964;2022-12-07T02:36:41;5.50;82.30
4840;DHT22;2434;48.486;7.964;2022-12-07T02:39:16;5.50;82.20
4840;DHT22;2434;48.486;7.964;2022-12-07T02:41:47;5.50;82.00
4840;DHT22;2434;48.486;7.964;2022-12-07T02:44:21;5.40;81.90
4840;DHT22;2434;48.486;7.964;2022-12-07T02:46:53;5.40;82.10
4840;DHT22;2434;48.486;7.964;2022-12-07T02:49:23;5.30;82.20
4840;DHT22;2434;48.486;7.964;2022-12-07T02:51:53;5.30;82.50
4840;DHT22;2434;48.486;7.964;2022-12-07T02:54:22;5.20;82.70
4840;DHT22;2434;48.486;7.964;2022-12-07T02:56:53;5.20;83.00
4840;DHT22;2434;48.486;7.964;2022-12-07T02:59:35;5.20;83.30
4840;DHT22;2434;48.486;7.964;2022-12-07T03:02:17;5.20;83.60
4840;DHT22;2434;48.486;7.964;2022-12-07T03:04:54;5.10;84.10
4840;DHT22;2434;48.486;7.964;2022-12-07T03:07:34;5.20;84.20
4840;DHT22;2434;48.486;7.964;2022-12-07T03:10:14;5.20;83.60
4840;DHT22;2434;48.486;7.964;2022-12-07T03:12:48;4.80;85.20
4840;DHT22;2434;48.486;7.964;2022-12-07T03:15:26;4.80;85.90
4840;DHT22;2434;48.486;7.964;2022-12-07T03:17:56;5.00;85.70
4840;DHT22;2434;48.486;7.964;2022-12-07T03:20:26;5.20;84.70
4840;DHT22;2434;48.486;7.964;2022-12-07T03:22:57;5.30;83.70
4840;DHT22;2434;48.486;7.964;2022-12-07T03:25:28;5.30;83.00
4840;DHT22;2434;48.486;7.964;2022-12-07T03:27:59;5.40;82.20
4840;DHT22;2434;48.486;7.964;2022-12-07T03:30:35;5.40;81.50
4840;DHT22;2434;48.486;7.964;2022-12-07T03:33:11;5.40;80.80
4840;DHT22;2434;48.486;7.964;2022-12-07T03:35:43;5.40;80.20
4840;DHT22;2434;48.486;7.964;2022-12-07T03:38:17;5.40;79.40
4840;DHT22;2434;48.486;7.964;2022-12-07T03:40:48;5.40;79.00
4840;DHT22;2434;48.486;7.964;2022-12-07T03:43:19;5.30;79.20
4840;DHT22;2434;48.486;7.964;2022-12-07T03:45:58;5.30;79.30
4840;DHT22;2434;48.486;7.964;2022-12-07T03:48:33;5.30;78.10
4840;DHT22;2434;48.486;7.964;2022-12-07T03:51:07;5.30;77.40
4840;DHT22;2434;48.486;7.964;2022-12-07T03:53:39;5.20;76.90
4840;DHT22;2434;48.486;7.964;2022-12-07T03:56:09;5.10;76.50
4840;DHT22;2434;48.486;7.964;2022-12-07T03:58:39;5.10;76.60
4840;DHT22;2434;48.486;7.964;2022-12-07T04:01:09;5.00;76.80
4840;DHT22;2434;48.486;7.964;2022-12-07T04:03:37;4.90;77.20
4840;DHT22;2434;48.486;7.964;2022-12-07T04:06:06;4.90;77.30
4840;DHT22;2434;48.486;7.964;2022-12-07T04:08:34;4.80;76.90
4840;DHT22;2434;48.486;7.964;2022-12-07T04:11:02;4.80;76.70
4840;DHT22;2434;48.486;7.964;2022-12-07T04:13:30;4.70;76.70
4840;DHT22;2434;48.486;7.964;2022-12-07T04:16:20;4.60;77.10
4840;DHT22;2434;48.486;7.964;2022-12-07T04:18:48;4.50;77.80
4840;DHT22;2434;48.486;7.964;2022-12-07T04:21:16;4.50;78.30
4840;DHT22;2434;48.486;7.964;2022-12-07T04:23:45;4.40;78.70
4840;DHT22;2434;48.486;7.964;2022-12-07T04:26:13;4.40;78.90
4840;DHT22;2434;48.486;7.964;2022-12-07T04:28:41;4.40;79.80
4840;DHT22;2434;48.486;7.964;2022-12-07T04:31:10;4.30;79.90
4840;DHT22;2434;48.486;7.964;2022-12-07T04:33:39;4.30;79.40
4840;DHT22;2434;48.486;7.964;2022-12-07T04:36:07;4.20;79.50
4840;DHT22;2434;48.486;7.964;2022-12-07T04:38:36;4.20;79.60
4840;DHT22;2434;48.486;7.964;2022-12-07T04:41:05;4.10;79.90
4840;DHT22;2434;48.486;7.964;2022-12-07T04:43:34;4.10;80.70
4840;DHT22;2434;48.486;7.964;2022-12-07T04:46:02;4.10;80.10
4840;DHT22;2434;48.486;7.964;2022-12-07T04:48:30;4.10;80.20
4840;DHT22;2434;48.486;7.964;2022-12-07T04:51:01;4.10;81.00
4840;DHT22;2434;48.486;7.964;2022-12-07T04:53:31;4.10;80.10
4840;DHT22;2434;48.486;7.964;2022-12-07T04:55:59;4.00;80.10
4840;DHT22;2434;48.486;7.964;2022-12-07T04:58:27;4.10;80.90
4840;DHT22;2434;48.486;7.964;2022-12-07T05:00:56;4.20;80.40
4840;DHT22;2434;48.486;7.964;2022-12-07T05:03:24;4.20;79.40
4840;DHT22;2434;48.486;7.964;2022-12-07T05:05:52;4.30;79.10
4840;DHT22;2434;48.486;7.964;2022-12-07T05:08:21;4.30;79.10
4840;DHT22;2434;48.486;7.964;2022-12-07T05:10:50;4.30;78.70
4840;DHT22;2434;48.486;7.964;2022-12-07T05:13:18;4.40;77.50
4840;DHT22;2434;48.486;7.964;2022-12-07T05:15:46;4.30;76.90
4840;DHT22;2434;48.486;7.964;2022-12-07T05:18:15;4.30;76.90
4840;DHT22;2434;48.486;7.964;2022-12-07T05:20:44;4.30;76.60
4840;DHT22;2434;48.486;7.964;2022-12-07T05:23:13;4.20;76.80
4840;DHT22;2434;48.486;7.964;2022-12-07T05:25:42;4.10;77.20
4840;DHT22;2434;48.486;7.964;2022-12-07T05:28:11;4.10;78.20
4840;DHT22;2434;48.486;7.964;2022-12-07T05:30:39;4.10;77.50
4840;DHT22;2434;48.486;7.964;2022-12-07T05:33:07;4.00;77.60
4840;DHT22;2434;48.486;7.964;2022-12-07T05:35:35;4.00;78.00
4840;DHT22;2434;48.486;7.964;2022-12-07T05:38:04;3.90;78.10
4840;DHT22;2434;48.486;7.964;2022-12-07T05:40:32;3.90;78.10
4840;DHT22;2434;48.486;7.964;2022-12-07T05:43:02;3.90;78.40
4840;DHT22;2434;48.486;7.964;2022-12-07T05:45:30;3.90;78.40
4840;DHT22;2434;48.486;7.964;2022-12-07T05:47:59;4.00;77.90
4840;DHT22;2434;48.486;7.964;2022-12-07T05:50:27;4.00;77.40
4840;DHT22;2434;48.486;7.964;2022-12-07T05:53:02;4.00;76.60
4840;DHT22;2434;48.486;7.964;2022-12-07T05:55:30;4.00;76.30
4840;DHT22;2434;48.486;7.964;2022-12-07T05:57:58;3.90;76.40
4840;DHT22;2434;48.486;7.964;2022-12-07T06:00:45;3.90;76.30
4840;DHT22;2434;48.486;7.964;2022-12-07T06:03:17;3.80;76.30
4840;DHT22;2434;48.486;7.964;2022-12-07T06:05:45;3.80;76.60
4840;DHT22;2434;48.486;7.964;2022-12-07T06:08:13;3.80;77.70
4840;DHT22;2434;48.486;7.964;2022-12-07T06:10:42;3.80;76.90
4840;DHT22;2434;48.486;7.964;2022-12-07T06:13:10;3.80;76.90
4840;DHT22;2434;48.486;7.964;2022-12-07T06:15:37;3.80;76.90
4840;DHT22;2434;48.486;7.964;2022-12-07T06:18:07;3.80;76.80
4840;DHT22;2434;48.486;7.964;2022-12-07T06:20:35;3.80;76.70
4840;DHT22;2434;48.486;7.964;2022-12-07T06:23:03;3.80;77.10
4840;DHT22;2434;48.486;7.964;2022-12-07T06:25:31;3.90;77.10
4840;DHT22;2434;48.486;7.964;2022-12-07T06:28:00;3.80;76.40
4840;DHT22;2434;48.486;7.964;2022-12-07T06:30:28;3.80;76.40
4840;DHT22;2434;48.486;7.964;2022-12-07T06:32:56;3.70;77.70
4840;DHT22;2434;48.486;7.964;2022-12-07T06:35:25;3.70;77.20
4840;DHT22;2434;48.486;7.964;2022-12-07T06:37:53;3.70;77.40
4840;DHT22;2434;48.486;7.964;2022-12-07T06:40:21;3.70;77.10
4840;DHT22;2434;48.486;7.964;2022-12-07T06:42:50;3.70;76.80
4840;DHT22;2434;48.486;7.964;2022-12-07T06:45:18;3.70;76.90
4840;DHT22;2434;48.486;7.964;2022-12-07T06:47:46;3.70;77.00
4840;DHT22;2434;48.486;7.964;2022-12-07T06:50:14;3.70;77.00
4840;DHT22;2434;48.486;7.964;2022-12-07T06:52:44;3.70;77.10
4840;DHT22;2434;48.486;7.964;2022-12-07T06:55:12;3.60;77.10
4840;DHT22;2434;48.486;7.964;2022-12-07T06:57:40;3.60;77.20
4840;DHT22;2434;48.486;7.964;2022-12-07T07:00:10;3.60;77.70
4840;DHT22;2434;48.486;7.964;2022-12-07T07:02:45;3.70;77.90
4840;DHT22;2434;48.486;7.964;2022-12-07T07:05:14;3.60;77.70
4840;DHT22;2434;48.486;7.964;2022-12-07T07:07:43;3.60;77.50
4840;DHT22;2434;48.486;7.964;2022-12-07T07:10:32;3.70;77.80
4840;DHT22;2434;48.486;7.964;2022-12-07T07:13:00;3.70;77.30
4840;DHT22;2434;48.486;7.964;2022-12-07T07:15:28;3.70;77.20
4840;DHT22;2434;48.486;7.964;2022-12-07T07:17:56;3.60;77.30
4840;DHT22;2434;48.486;7.964;2022-12-07T07:20:31;3.50;77.70
4840;DHT22;2434;48.486;7.964;2022-12-07T07:23:01;3.50;78.50
4840;DHT22;2434;48.486;7.964;2022-12-07T07:25:29;3.50;79.10
4840;DHT22;2434;48.486;7.964;2022-12-07T07:27:58;3.40;79.30
4840;DHT22;2434;48.486;7.964;2022-12-07T07:30:26;3.40;79.20
4840;DHT22;2434;48.486;7.964;2022-12-07T07:32:56;3.50;79.30
4840;DHT22;2434;48.486;7.964;2022-12-07T07:35:24;3.60;79.00
4840;DHT22;2434;48.486;7.964;2022-12-07T07:37:53;3.60;78.80
4840;DHT22;2434;48.486;7.964;2022-12-07T07:40:23;3.60;78.70
4840;DHT22;2434;48.486;7.964;2022-12-07T07:42:52;3.70;78.70
4840;DHT22;2434;48.486;7.964;2022-12-07T07:45:22;3.70;78.60
4840;DHT22;2434;48.486;7.964;2022-12-07T07:47:51;3.80;78.80
4840;DHT22;2434;48.486;7.964;2022-12-07T07:50:20;3.70;78.60
4840;DHT22;2434;48.486;7.964;2022-12-07T07:52:48;3.70;78.90
4840;DHT22;2434;48.486;7.964;2022-12-07T07:55:17;3.80;78.70
4840;DHT22;2434;48.486;7.964;2022-12-07T07:57:46;3.80;78.80
4840;DHT22;2434;48.486;7.964;2022-12-07T08:00:21;3.80;78.70
4840;DHT22;2434;48.486;7.964;2022-12-07T08:02:50;3.80;78.70
4840;DHT22;2434;48.486;7.964;2022-12-07T08:05:18;3.80;78.70
4840;DHT22;2434;48.486;7.964;2022-12-07T08:07:47;3.60;79.90
4840;DHT22;2434;48.486;7.964;2022-12-07T08:10:15;3.80;79.80
4840;DHT22;2434;48.486;7.964;2022-12-07T08:12:43;3.80;80.00
4840;DHT22;2434;48.486;7.964;2022-12-07T08:15:31;3.90;80.00
4840;DHT22;2434;48.486;7.964;2022-12-07T08:17:59;3.90;79.60
4840;DHT22;2434;48.486;7.964;2022-12-07T08:20:30;3.80;81.00
4840;DHT22;2434;48.486;7.964;2022-12-07T08:22:58;3.90;80.20
4840;DHT22;2434;48.486;7.964;2022-12-07T08:25:27;3.90;80.00
4840;DHT22;2434;48.486;7.964;2022-12-07T08:27:55;4.00;79.70
4840;DHT22;2434;48.486;7.964;2022-12-07T08:30:23;3.90;80.70
4840;DHT22;2434;48.486;7.964;2022-12-07T08:32:53;4.00;80.00
4840;DHT22;2434;48.486;7.964;2022-12-07T08:35:21;4.10;79.50
4840;DHT22;2434;48.486;7.964;2022-12-07T08:37:49;4.10;80.30
4840;DHT22;2434;48.486;7.964;2022-12-07T08:40:17;4.10;80.50
4840;DHT22;2434;48.486;7.964;2022-12-07T08:42:51;4.10;80.40
4840;DHT22;2434;48.486;7.964;2022-12-07T08:45:20;4.20;80.70
4840;DHT22;2434;48.486;7.964;2022-12-07T08:47:57;4.20;81.00
4840;DHT22;2434;48.486;7.964;2022-12-07T08:50:28;4.20;81.00
4840;DHT22;2434;48.486;7.964;2022-12-07T08:52:58;4.20;81.00
4840;DHT22;2434;48.486;7.964;2022-12-07T08:55:27;4.20;81.60
4840;DHT22;2434;48.486;7.964;2022-12-07T08:57:57;4.20;80.70
4840;DHT22;2434;48.486;7.964;2022-12-07T09:00:26;4.20;80.90
4840;DHT22;2434;48.486;7.964;2022-12-07T09:02:56;4.20;80.90
4840;DHT22;2434;48.486;7.964;2022-12-07T09:05:24;4.20;81.70
4840;DHT22;2434;48.486;7.964;2022-12-07T09:07:56;4.20;81.50
4840;DHT22;2434;48.486;7.964;2022-12-07T09:10:25;4.30;80.50
4840;DHT22;2434;48.486;7.964;2022-12-07T09:12:53;4.30;80.60
4840;DHT22;2434;48.486;7.964;2022-12-07T09:15:22;4.30;80.40
4840;DHT22;2434;48.486;7.964;2022-12-07T09:17:50;4.30;80.30
4840;DHT22;2434;48.486;7.964;2022-12-07T09:20:21;4.20;79.90
4840;DHT22;2434;48.486;7.964;2022-12-07T09:22:54;4.30;80.00
4840;DHT22;2434;48.486;7.964;2022-12-07T09:25:23;4.30;79.80
4840;DHT22;2434;48.486;7.964;2022-12-07T09:27:55;4.40;79.40
4840;DHT22;2434;48.486;7.964;2022-12-07T09:30:23;4.50;79.00
4840;DHT22;2434;48.486;7.964;2022-12-07T09:32:53;4.50;79.10
4840;DHT22;2434;48.486;7.964;2022-12-07T09:35:23;4.40;78.40
4840;DHT22;2434;48.486;7.964;2022-12-07T09:37:52;4.50;78.80
4840;DHT22;2434;48.486;7.964;2022-12-07T09:40:22;4.50;78.20
4840;DHT22;2434;48.486;7.964;2022-12-07T09:42:53;4.50;77.70
4840;DHT22;2434;48.486;7.964;2022-12-07T09:45:24;4.50;77.60
4840;DHT22;2434;48.486;7.964;2022-12-07T09:47:53;4.50;78.00
4840;DHT22;2434;48.486;7.964;2022-12-07T09:50:25;4.60;77.70
4840;DHT22;2434;48.486;7.964;2022-12-07T09:52:56;4.60;77.10
4840;DHT22;2434;48.486;7.964;2022-12-07T09:55:31;4.60;77.10
4840;DHT22;2434;48.486;7.964;2022-12-07T09:57:59;4.70;76.70
4840;DHT22;2434;48.486;7.964;2022-12-07T10:00:29;4.60;76.80
4840;DHT22;2434;48.486;7.964;2022-12-07T10:02:58;4.70;76.70
4840;DHT22;2434;48.486;7.964;2022-12-07T10:05:30;4.80;76.40
4840;DHT22;2434;48.486;7.964;2022-12-07T10:08:00;4.80;76.00
4840;DHT22;2434;48.486;7.964;2022-12-07T10:10:31;4.80;76.70
4840;DHT22;2434;48.486;7.964;2022-12-07T10:13:05;4.80;75.70
4840;DHT22;2434;48.486;7.964;2022-12-07T10:15:48;4.80;75.20
4840;DHT22;2434;48.486;7.964;2022-12-07T10:18:20;4.70;75.50
4840;DHT22;2434;48.486;7.964;2022-12-07T10:21:01;4.80;75.70
4840;DHT22;2434;48.486;7.964;2022-12-07T10:23:30;4.70;75.90
4840;DHT22;2434;48.486;7.964;2022-12-07T10:25:58;4.80;76.30
4840;DHT22;2434;48.486;7.964;2022-12-07T10:28:35;4.70;77.10
4840;DHT22;2434;48.486;7.964;2022-12-07T10:31:16;4.50;76.90
4840;DHT22;2434;48.486;7.964;2022-12-07T10:33:50;4.60;76.30
4840;DHT22;2434;48.486;7.964;2022-12-07T10:36:23;4.50;75.30
4840;DHT22;2434;48.486;7.964;2022-12-07T10:38:53;4.60;77.40
4840;DHT22;2434;48.486;7.964;2022-12-07T10:41:26;4.60;76.20
4840;DHT22;2434;48.486;7.964;2022-12-07T10:43:56;4.70;76.10
4840;DHT22;2434;48.486;7.964;2022-12-07T10:47:03;4.60;75.70
4840;DHT22;2434;48.486;7.964;2022-12-07T10:56:09;4.70;75.60
4840;DHT22;2434;48.486;7.964;2022-12-07T10:58:52;4.70;74.80
4840;DHT22;2434;48.486;7.964;2022-12-07T11:01:30;4.80;75.40
4840;DHT22;2434;48.486;7.964;2022-12-07T11:04:17;4.80;75.10
4840;DHT22;2434;48.486;7.964;2022-12-07T11:06:53;4.80;75.30
4840;DHT22;2434;48.486;7.964;2022-12-07T11:09:39;4.80;74.60
4840;DHT22;2434;48.486;7.964;2022-12-07T11:12:51;4.60;75.30
4840;DHT22;2434;48.486;7.964;2022-12-07T11:15:26;4.60;76.90
4840;DHT22;2434;48.486;7.964;2022-12-07T11:18:02;4.70;76.80
4840;DHT22;2434;48.486;7.964;2022-12-07T11:20:43;4.80;77.00
4840;DHT22;2434;48.486;7.964;2022-12-07T11:23:21;4.70;77.30
4840;DHT22;2434;48.486;7.964;2022-12-07T11:26:00;4.80;77.80
4840;DHT22;2434;48.486;7.964;2022-12-07T11:28:46;4.80;77.70
4840;DHT22;2434;48.486;7.964;2022-12-07T11:31:24;4.90;77.60
4840;DHT22;2434;48.486;7.964;2022-12-07T11:34:00;4.90;76.90
4840;DHT22;2434;48.486;7.964;2022-12-07T11:36:36;4.90;77.40
4840;DHT22;2434;48.486;7.964;2022-12-07T11:39:23;4.90;77.20
4840;DHT22;2434;48.486;7.964;2022-12-07T11:42:00;5.00;77.20
4840;DHT22;2434;48.486;7.964;2022-12-07T11:44:34;5.00;77.20
4840;DHT22;2434;48.486;7.964;2022-12-07T11:47:08;5.10;77.00
4840;DHT22;2434;48.486;7.964;2022-12-07T11:49:43;5.10;75.90
4840;DHT22;2434;48.486;7.964;2022-12-07T11:52:18;5.10;75.90
4840;DHT22;2434;48.486;7.964;2022-12-07T11:54:50;5.10;75.80
4840;DHT22;2434;48.486;7.964;2022-12-07T11:57:26;5.20;76.50
4840;DHT22;2434;48.486;7.964;2022-12-07T11:59:59;5.20;75.70
4840;DHT22;2434;48.486;7.964;2022-12-07T12:02:33;5.10;75.00
4840;DHT22;2434;48.486;7.964;2022-12-07T12:05:14;5.10;74.60
4840;DHT22;2434;48.486;7.964;2022-12-07T12:07:44;5.20;74.30
4840;DHT22;2434;48.486;7.964;2022-12-07T12:10:40;5.30;74.20
4840;DHT22;2434;48.486;7.964;2022-12-07T12:13:31;5.30;72.80
4840;DHT22;2434;48.486;7.964;2022-12-07T12:16:52;5.40;72.50
4840;DHT22;2434;48.486;7.964;2022-12-07T12:19:30;5.50;70.40
4840;DHT22;2434;48.486;7.964;2022-12-07T12:22:06;5.30;70.10
4840;DHT22;2434;48.486;7.964;2022-12-07T12:24:38;5.30;71.40
4840;DHT22;2434;48.486;7.964;2022-12-07T12:27:15;5.40;70.90
4840;DHT22;2434;48.486;7.964;2022-12-07T12:29:53;5.50;70.60
4840;DHT22;2434;48.486;7.964;2022-12-07T12:32:29;5.40;71.00
4840;DHT22;2434;48.486;7.964;2022-12-07T12:37:47;5.50;69.30
4840;DHT22;2434;48.486;7.964;2022-12-07T12:40:41;5.60;69.90
4840;DHT22;2434;48.486;7.964;2022-12-07T12:43:49;5.60;69.20
4840;DHT22;2434;48.486;7.964;2022-12-07T12:46:47;5.60;69.80
4840;DHT22;2434;48.486;7.964;2022-12-07T12:49:44;5.50;69.40
4840;DHT22;2434;48.486;7.964;2022-12-07T12:52:51;5.50;68.20
4840;DHT22;2434;48.486;7.964;2022-12-07T12:58:40;5.50;68.30
4840;DHT22;2434;48.486;7.964;2022-12-07T13:01:44;5.60;68.90
4840;DHT22;2434;48.486;7.964;2022-12-07T13:04:22;5.40;64.50
4840;DHT22;2434;48.486;7.964;2022-12-07T13:06:52;5.30;65.40
4840;DHT22;2434;48.486;7.964;2022-12-07T13:09:23;5.10;65.90
4840;DHT22;2434;48.486;7.964;2022-12-07T13:12:01;5.20;68.70
4840;DHT22;2434;48.486;7.964;2022-12-07T13:14:55;5.40;69.50
4840;DHT22;2434;48.486;7.964;2022-12-07T13:17:59;5.50;69.50
4840;DHT22;2434;48.486;7.964;2022-12-07T13:20:55;5.60;65.20
4840;DHT22;2434;48.486;7.964;2022-12-07T13:23:32;5.60;66.40
4840;DHT22;2434;48.486;7.964;2022-12-07T13:26:06;6.00;68.90
4840;DHT22;2434;48.486;7.964;2022-12-07T13:28:45;6.20;67.20
4840;DHT22;2434;48.486;7.964;2022-12-07T13:31:35;6.40;65.50
4840;DHT22;2434;48.486;7.964;2022-12-07T13:36:53;6.30;63.70
4840;DHT22;2434;48.486;7.964;2022-12-07T13:39:24;5.80;59.50
4840;DHT22;2434;48.486;7.964;2022-12-07T13:41:53;5.50;61.80
4840;DHT22;2434;48.486;7.964;2022-12-07T13:44:24;5.50;64.10
4840;DHT22;2434;48.486;7.964;2022-12-07T13:46:57;5.40;63.90
4840;DHT22;2434;48.486;7.964;2022-12-07T13:49:30;5.70;66.90
4840;DHT22;2434;48.486;7.964;2022-12-07T13:52:15;6.00;66.20
4840;DHT22;2434;48.486;7.964;2022-12-07T13:54:45;5.90;64.60
4840;DHT22;2434;48.486;7.964;2022-12-07T13:57:13;6.00;64.30
4840;DHT22;2434;48.486;7.964;2022-12-07T13:59:42;5.60;65.70
4840;DHT22;2434;48.486;7.964;2022-12-07T14:02:18;5.40;66.10
4840;DHT22;2434;48.486;7.964;2022-12-07T14:04:50;5.30;67.20
4840;DHT22;2434;48.486;7.964;2022-12-07T14:07:22;5.30;67.60
4840;DHT22;2434;48.486;7.964;2022-12-07T14:09:57;5.50;67.30
4840;DHT22;2434;48.486;7.964;2022-12-07T14:12:27;5.40;67.60
4840;DHT22;2434;48.486;7.964;2022-12-07T14:14:57;5.40;68.50
4840;DHT22;2434;48.486;7.964;2022-12-07T14:17:27;5.50;68.50
4840;DHT22;2434;48.486;7.964;2022-12-07T14:19:58;5.50;68.50
4840;DHT22;2434;48.486;7.964;2022-12-07T14:22:34;5.40;68.50
4840;DHT22;2434;48.486;7.964;2022-12-07T14:25:27;5.70;69.90
4840;DHT22;2434;48.486;7.964;2022-12-07T14:27:57;5.90;69.70
4840;DHT22;2434;48.486;7.964;2022-12-07T14:30:27;6.10;69.70
4840;DHT22;2434;48.486;7.964;2022-12-07T14:32:58;6.20;69.10
4840;DHT22;2434;48.486;7.964;2022-12-07T14:35:29;6.20;67.70
4840;DHT22;2434;48.486;7.964;2022-12-07T14:37:58;6.20;68.20
4840;DHT22;2434;48.486;7.964;2022-12-07T14:40:28;6.00;66.70
4840;DHT22;2434;48.486;7.964;2022-12-07T14:43:00;5.70;68.80
4840;DHT22;2434;48.486;7.964;2022-12-07T14:45:29;5.70;70.50
4840;DHT22;2434;48.486;7.964;2022-12-07T14:47:58;5.90;71.10
4840;DHT22;2434;48.486;7.964;2022-12-07T14:50:50;5.70;69.30
4840;DHT22;2434;48.486;7.964;2022-12-07T14:53:41;5.80;70.50
4840;DHT22;2434;48.486;7.964;2022-12-07T14:56:11;5.60;71.50
4840;DHT22;2434;48.486;7.964;2022-12-07T14:58:40;5.60;72.30
4840;DHT22;2434;48.486;7.964;2022-12-07T15:01:08;5.60;73.60
4840;DHT22;2434;48.486;7.964;2022-12-07T15:03:36;5.60;72.80
4840;DHT22;2434;48.486;7.964;2022-12-07T15:06:07;5.60;72.90
4840;DHT22;2434;48.486;7.964;2022-12-07T15:08:35;5.80;72.30
4840;DHT22;2434;48.486;7.964;2022-12-07T15:11:03;5.90;74.80
4840;DHT22;2434;48.486;7.964;2022-12-07T15:13:31;6.00;76.60
4840;DHT22;2434;48.486;7.964;2022-12-07T15:16:20;6.20;75.60
4840;DHT22;2434;48.486;7.964;2022-12-07T15:18:48;6.20;71.80
4840;DHT22;2434;48.486;7.964;2022-12-07T15:21:39;6.30;70.70
4840;DHT22;2434;48.486;7.964;2022-12-07T15:24:08;6.40;71.20
4840;DHT22;2434;48.486;7.964;2022-12-07T15:26:38;6.40;71.30
4840;DHT22;2434;48.486;7.964;2022-12-07T15:29:07;6.40;72.10
4840;DHT22;2434;48.486;7.964;2022-12-07T15:31:36;6.40;70.50
4840;DHT22;2434;48.486;7.964;2022-12-07T15:34:23;6.40;70.50
4840;DHT22;2434;48.486;7.964;2022-12-07T15:36:52;6.00;69.40
4840;DHT22;2434;48.486;7.964;2022-12-07T15:39:21;5.50;74.10
4840;DHT22;2434;48.486;7.964;2022-12-07T15:41:49;5.20;76.60
4840;DHT22;2434;48.486;7.964;2022-12-07T15:44:17;5.00;77.30
4840;DHT22;2434;48.486;7.964;2022-12-07T15:47:04;5.00;77.80
4840;DHT22;2434;48.486;7.964;2022-12-07T15:49:32;4.90;79.00
4840;DHT22;2434;48.486;7.964;2022-12-07T15:52:02;4.70;80.70
4840;DHT22;2434;48.486;7.964;2022-12-07T15:54:30;4.80;81.60
4840;DHT22;2434;48.486;7.964;2022-12-07T15:56:59;4.60;81.90
4840;DHT22;2434;48.486;7.964;2022-12-07T15:59:28;4.50;83.10
4840;DHT22;2434;48.486;7.964;2022-12-07T16:01:57;4.50;82.40
4840;DHT22;2434;48.486;7.964;2022-12-07T16:04:27;4.50;83.40
4840;DHT22;2434;48.486;7.964;2022-12-07T16:06:55;4.40;82.50
4840;DHT22;2434;48.486;7.964;2022-12-07T16:09:24;4.30;83.10
4840;DHT22;2434;48.486;7.964;2022-12-07T16:11:53;4.30;83.80
4840;DHT22;2434;48.486;7.964;2022-12-07T16:14:22;4.40;83.70
4840;DHT22;2434;48.486;7.964;2022-12-07T16:16:50;4.40;83.50
4840;DHT22;2434;48.486;7.964;2022-12-07T16:19:18;4.50;83.30
4840;DHT22;2434;48.486;7.964;2022-12-07T16:21:46;4.50;83.10
4840;DHT22;2434;48.486;7.964;2022-12-07T16:24:14;4.80;82.40
4840;DHT22;2434;48.486;7.964;2022-12-07T16:26:44;4.70;82.20
4840;DHT22;2434;48.486;7.964;2022-12-07T16:29:17;4.60;81.90
4840;DHT22;2434;48.486;7.964;2022-12-07T16:31:46;4.70;81.90
4840;DHT22;2434;48.486;7.964;2022-12-07T16:34:15;4.90;80.90
4840;DHT22;2434;48.486;7.964;2022-12-07T16:36:44;5.10;79.10
4840;DHT22;2434;48.486;7.964;2022-12-07T16:39:30;5.10;78.70
4840;DHT22;2434;48.486;7.964;2022-12-07T16:42:00;5.10;78.50
4840;DHT22;2434;48.486;7.964;2022-12-07T16:44:28;5.20;78.60
4840;DHT22;2434;48.486;7.964;2022-12-07T16:46:57;5.30;77.50
4840;DHT22;2434;48.486;7.964;2022-12-07T16:49:25;5.50;76.90
4840;DHT22;2434;48.486;7.964;2022-12-07T16:51:54;5.50;77.20
4840;DHT22;2434;48.486;7.964;2022-12-07T16:54:42;5.60;76.00
4840;DHT22;2434;48.486;7.964;2022-12-07T16:57:11;5.50;76.30
4840;DHT22;2434;48.486;7.964;2022-12-07T16:59:47;5.40;76.50
4840;DHT22;2434;48.486;7.964;2022-12-07T17:02:16;5.50;75.80
4840;DHT22;2434;48.486;7.964;2022-12-07T17:04:44;5.60;75.50
4840;DHT22;2434;48.486;7.964;2022-12-07T17:07:12;5.50;75.80
4840;DHT22;2434;48.486;7.964;2022-12-07T17:09:42;5.30;76.40
4840;DHT22;2434;48.486;7.964;2022-12-07T17:12:11;5.20;78.10
4840;DHT22;2434;48.486;7.964;2022-12-07T17:14:39;5.10;77.90
4840;DHT22;2434;48.486;7.964;2022-12-07T17:17:25;5.30;77.20